sensor_id;sensor_type;location;lat;lon;timestamp;pressure;altitude;pressure_sealevel;temperature;humidity
17254;BME280;32542;52.832;13.816;2023-03-23T00:00:52;100491.84;;;21.74;48.02
17254;BME280;32542;52.832;13.816;2023-03-23T00:03:56;100486.53;;;21.74;47.96
17254;BME280;32542;52.832;13.816;2023-03-23T00:07:00;100475.88;;;21.74;47.97
17254;BME280;32542;52.832;13.816;2023-03-23T00:10:04;100488.34;;;21.73;47.85
17254;BME280;32542;52.832;13.816;2023-03-23T00:13:06;100482.25;;;21.71;47.99
17254;BME280;32542;52.832;13.816;2023-03-23T00:16:08;100478.63;;;21.72;48.01
17254;BME280;32542;52.832;13.816;2023-03-23T00:19:17;100468.06;;;21.71;48.01
17254;BME280;32542;52.832;13.816;2023-03-23T00:22:22;100476.97;;;21.70;48.02
17254;BME280;32542;52.832;13.816;2023-03-23T00:25:25;100474.31;;;21.70;48.10
17254;BME280;32542;52.832;13.816;2023-03-23T00:28:27;100458.34;;;21.70;48.02
17254;BME280;32542;52.832;13.816;2023-03-23T00:31:30;100461.09;;;21.68;47.93
17254;BME280;32542;52.832;13.816;2023-03-23T00:34:33;100458.44;;;21.68;48.02
17254;BME280;32542;52.832;13.816;2023-03-23T00:37:36;100453.97;;;21.69;48.04
17254;BME280;32542;52.832;13.816;2023-03-23T00:40:38;100459.28;;;21.69;47.91
17254;BME280;32542;52.832;13.816;2023-03-23T00:43:40;100452.13;;;21.69;47.92
17254;BME280;32542;52.832;13.816;2023-03-23T00:46:42;100448.63;;;21.69;47.92
17254;BME280;32542;52.832;13.816;2023-03-23T00:49:46;100449.56;;;21.68;47.98
17254;BME280;32542;52.832;13.816;2023-03-23T00:52:49;100442.53;;;21.67;47.98
17254;BME280;32542;52.832;13.816;2023-03-23T00:55:53;100435.47;;;21.66;47.92
17254;BME280;32542;52.832;13.816;2023-03-23T00:58:55;100439.09;;;21.65;47.97
17254;BME280;32542;52.832;13.816;2023-03-23T01:01:57;100432.03;;;21.64;47.85
17254;BME280;32542;52.832;13.816;2023-03-23T01:04:58;100425.94;;;21.62;47.94
17254;BME280;32542;52.832;13.816;2023-03-23T01:08:04;100423.28;;;21.62;47.95
17254;BME280;32542;52.832;13.816;2023-03-23T01:11:06;100411.75;;;21.61;48.08
17254;BME280;32542;52.832;13.816;2023-03-23T01:14:09;100416.25;;;21.61;48.05
17254;BME280;32542;52.832;13.816;2023-03-23T01:17:11;100401.19;;;21.60;47.93
17254;BME280;32542;52.832;13.816;2023-03-23T01:20:14;100403.84;;;21.60;48.05
17254;BME280;32542;52.832;13.816;2023-03-23T01:23:18;100405.59;;;21.61;47.93
17254;BME280;32542;52.832;13.816;2023-03-23T01:26:21;100398.53;;;21.60;47.91
17254;BME280;32542;52.832;13.816;2023-03-23T01:29:25;100400.25;;;21.61;48.00
17254;BME280;32542;52.832;13.816;2023-03-23T01:32:28;100386.13;;;21.59;47.99
17254;BME280;32542;52.832;13.816;2023-03-23T01:35:30;100383.47;;;21.59;47.94
17254;BME280;32542;52.832;13.816;2023-03-23T01:38:34;100374.69;;;21.57;47.96
17254;BME280;32542;52.832;13.816;2023-03-23T01:41:37;100376.53;;;21.56;48.03
17254;BME280;32542;52.832;13.816;2023-03-23T01:45:30;100389.09;;;21.54;47.92
17254;BME280;32542;52.832;13.816;2023-03-23T01:48:34;100395.25;;;21.55;47.96
17254;BME280;32542;52.832;13.816;2023-03-23T01:51:39;100393.53;;;21.54;47.92
17254;BME280;32542;52.832;13.816;2023-03-23T01:54:45;100391.81;;;21.53;47.92
17254;BME280;32542;52.832;13.816;2023-03-23T01:57:49;100392.84;;;21.50;47.99
17254;BME280;32542;52.832;13.816;2023-03-23T02:00:52;100391.03;;;21.51;47.96
17254;BME280;32542;52.832;13.816;2023-03-23T02:03:56;100386.56;;;21.51;47.90
17254;BME280;32542;52.832;13.816;2023-03-23T02:06:59;100374.19;;;21.50;47.92
17254;BME280;32542;52.832;13.816;2023-03-23T02:10:05;100360.88;;;21.50;48.01
17254;BME280;32542;52.832;13.816;2023-03-23T02:13:10;100368.97;;;21.49;48.05
17254;BME280;32542;52.832;13.816;2023-03-23T02:16:17;100372.59;;;21.48;48.11
17254;BME280;32542;52.832;13.816;2023-03-23T02:19:37;100369.16;;;21.46;48.13
17254;BME280;32542;52.832;13.816;2023-03-23T02:23:14;100349.72;;;21.44;48.19
17254;BME280;32542;52.832;13.816;2023-03-23T02:26:34;100356.84;;;21.43;48.17
17254;BME280;32542;52.832;13.816;2023-03-23T02:29:54;100359.53;;;21.43;48.21
17254;BME280;32542;52.832;13.816;2023-03-23T02:33:22;100343.63;;;21.42;48.16
17254;BME280;32542;52.832;13.816;2023-03-23T02:36:30;100343.69;;;21.40;48.18
17254;BME280;32542;52.832;13.816;2023-03-23T02:39:42;100334.78;;;21.41;48.12
17254;BME280;32542;52.832;13.816;2023-03-23T02:42:50;100332.03;;;21.43;48.16
17254;BME280;32542;52.832;13.816;2023-03-23T02:45:56;100331.91;;;21.44;47.99
17254;BME280;32542;52.832;13.816;2023-03-23T02:49:02;100346.09;;;21.45;47.95
17254;BME280;32542;52.832;13.816;2023-03-23T02:52:09;100337.25;;;21.44;47.85
17254;BME280;32542;52.832;13.816;2023-03-23T02:55:16;100341.75;;;21.44;47.95
17254;BME280;32542;52.832;13.816;2023-03-23T02:58:19;100337.19;;;21.46;47.91
17254;BME280;32542;52.832;13.816;2023-03-23T03:01:46;100339.91;;;21.44;47.94
17254;BME280;32542;52.832;13.816;2023-03-23T03:04:58;100345.34;;;21.43;48.04
17254;BME280;32542;52.832;13.816;2023-03-23T03:08:15;100348.16;;;21.40;48.07
17254;BME280;32542;52.832;13.816;2023-03-23T03:11:22;100349.13;;;21.39;48.21
17254;BME280;32542;52.832;13.816;2023-03-23T03:14:30;100344.56;;;21.41;48.10
17254;BME280;32542;52.832;13.816;2023-03-23T03:17:36;100350.66;;;21.43;47.90
17254;BME280;32542;52.832;13.816;2023-03-23T03:20:47;100356.00;;;21.43;47.94
17254;BME280;32542;52.832;13.816;2023-03-23T03:23:52;100347.13;;;21.42;47.93
17254;BME280;32542;52.832;13.816;2023-03-23T03:27:00;100347.13;;;21.42;48.03
17254;BME280;32542;52.832;13.816;2023-03-23T03:30:17;100340.00;;;21.43;47.98
17254;BME280;32542;52.832;13.816;2023-03-23T03:33:23;100339.91;;;21.44;47.94
17254;BME280;32542;52.832;13.816;2023-03-23T03:36:32;100354.97;;;21.45;47.91
17254;BME280;32542;52.832;13.816;2023-03-23T03:39:39;100365.53;;;21.47;47.90
17254;BME280;32542;52.832;13.816;2023-03-23T03:42:43;100359.25;;;21.48;47.91
17254;BME280;32542;52.832;13.816;2023-03-23T03:45:45;100359.25;;;21.48;47.72
17254;BME280;32542;52.832;13.816;2023-03-23T03:48:47;100348.50;;;21.49;47.79
17254;BME280;32542;52.832;13.816;2023-03-23T03:51:55;100352.97;;;21.49;47.84
17254;BME280;32542;52.832;13.816;2023-03-23T03:55:04;100353.75;;;21.51;47.72
17254;BME280;32542;52.832;13.816;2023-03-23T03:58:08;100351.09;;;21.51;47.71
17254;BME280;32542;52.832;13.816;2023-03-23T04:01:30;100361.72;;;21.51;47.70
17254;BME280;32542;52.832;13.816;2023-03-23T04:04:32;100356.41;;;21.51;47.80
17254;BME280;32542;52.832;13.816;2023-03-23T04:07:36;100360.81;;;21.52;47.78
17254;BME280;32542;52.832;13.816;2023-03-23T04:10:40;100367.00;;;21.52;47.72
17254;BME280;32542;52.832;13.816;2023-03-23T04:13:42;100362.50;;;21.53;47.72
17254;BME280;32542;52.832;13.816;2023-03-23T04:16:59;100363.38;;;21.53;47.65
17254;BME280;32542;52.832;13.816;2023-03-23T04:20:02;100352.63;;;21.55;47.69
17254;BME280;32542;52.832;13.816;2023-03-23T04:23:09;100346.47;;;21.54;47.67
17254;BME280;32542;52.832;13.816;2023-03-23T04:26:11;100331.31;;;21.55;47.72
17254;BME280;32542;52.832;13.816;2023-03-23T04:29:18;100332.16;;;21.55;47.72
17254;BME280;32542;52.832;13.816;2023-03-23T04:32:39;100341.97;;;21.55;47.71
17254;BME280;32542;52.832;13.816;2023-03-23T04:35:43;100345.59;;;21.54;47.74
17254;BME280;32542;52.832;13.816;2023-03-23T04:39:13;100336.63;;;21.55;47.71
17254;BME280;32542;52.832;13.816;2023-03-23T04:42:17;100336.63;;;21.55;47.73
17254;BME280;32542;52.832;13.816;2023-03-23T04:45:38;100345.59;;;21.54;47.67
17254;BME280;32542;52.832;13.816;2023-03-23T04:48:42;100345.59;;;21.54;47.72
17254;BME280;32542;52.832;13.816;2023-03-23T04:51:52;100352.63;;;21.55;47.69
17254;BME280;32542;52.832;13.816;2023-03-23T04:55:07;100348.16;;;21.55;47.72
17254;BME280;32542;52.832;13.816;2023-03-23T04:58:12;100354.34;;;21.56;47.69
17254;BME280;32542;52.832;13.816;2023-03-23T05:01:27;100370.34;;;21.56;47.77
17254;BME280;32542;52.832;13.816;2023-03-23T05:04:49;100366.72;;;21.57;47.69
17254;BME280;32542;52.832;13.816;2023-03-23T05:07:55;100366.81;;;21.55;47.63
17254;BME280;32542;52.832;13.816;2023-03-23T05:11:00;100373.88;;;21.56;47.71
17254;BME280;32542;52.832;13.816;2023-03-23T05:14:08;100365.00;;;21.56;47.71
17254;BME280;32542;52.832;13.816;2023-03-23T05:17:11;100371.25;;;21.55;47.71
17254;BME280;32542;52.832;13.816;2023-03-23T05:20:20;100369.56;;;21.54;47.67
17254;BME280;32542;52.832;13.816;2023-03-23T05:23:24;100365.94;;;21.55;47.73
17254;BME280;32542;52.832;13.816;2023-03-23T05:26:35;100362.44;;;21.54;47.78
17254;BME280;32542;52.832;13.816;2023-03-23T05:29:49;100359.84;;;21.53;47.64
17254;BME280;32542;52.832;13.816;2023-03-23T05:32:55;100357.19;;;21.53;47.69
17254;BME280;32542;52.832;13.816;2023-03-23T05:36:29;100366.03;;;21.53;47.67
17254;BME280;32542;52.832;13.816;2023-03-23T05:40:10;100354.50;;;21.53;47.73
17254;BME280;32542;52.832;13.816;2023-03-23T05:43:25;100350.91;;;21.54;47.74
17254;BME280;32542;52.832;13.816;2023-03-23T05:46:53;100361.56;;;21.54;47.67
17254;BME280;32542;52.832;13.816;2023-03-23T05:49:55;100350.91;;;21.54;47.71
17254;BME280;32542;52.832;13.816;2023-03-23T05:52:59;100362.44;;;21.54;47.63
17254;BME280;32542;52.832;13.816;2023-03-23T05:56:03;100364.25;;;21.54;47.67
17254;BME280;32542;52.832;13.816;2023-03-23T05:59:30;100369.56;;;21.54;47.70
17254;BME280;32542;52.832;13.816;2023-03-23T06:02:33;100362.44;;;21.54;47.76
17254;BME280;32542;52.832;13.816;2023-03-23T06:05:35;100362.44;;;21.54;47.80
17254;BME280;32542;52.832;13.816;2023-03-23T06:08:37;100367.78;;;21.54;47.72
17254;BME280;32542;52.832;13.816;2023-03-23T06:11:40;100361.56;;;21.54;47.74
17254;BME280;32542;52.832;13.816;2023-03-23T06:15:15;100361.56;;;21.54;47.65
17254;BME280;32542;52.832;13.816;2023-03-23T06:18:41;100357.94;;;21.55;47.69
17254;BME280;32542;52.832;13.816;2023-03-23T06:21:52;100360.72;;;21.53;47.64
17254;BME280;32542;52.832;13.816;2023-03-23T06:25:01;100367.78;;;21.54;47.57
17254;BME280;32542;52.832;13.816;2023-03-23T06:28:11;100366.91;;;21.54;47.60
17254;BME280;32542;52.832;13.816;2023-03-23T06:31:19;100370.44;;;21.54;47.60
17254;BME280;32542;52.832;13.816;2023-03-23T06:34:23;100368.59;;;21.55;47.64
17254;BME280;32542;52.832;13.816;2023-03-23T06:37:54;100373.94;;;21.55;47.71
17254;BME280;32542;52.832;13.816;2023-03-23T06:41:24;100378.44;;;21.54;47.60
17254;BME280;32542;52.832;13.816;2023-03-23T06:44:27;100370.50;;;21.53;47.62
17254;BME280;32542;52.832;13.816;2023-03-23T06:47:30;100387.34;;;21.53;47.70
17254;BME280;32542;52.832;13.816;2023-03-23T06:50:33;100387.34;;;21.53;47.73
17254;BME280;32542;52.832;13.816;2023-03-23T06:53:36;100381.16;;;21.53;47.72
17254;BME280;32542;52.832;13.816;2023-03-23T06:56:40;100375.00;;;21.52;47.65
17254;BME280;32542;52.832;13.816;2023-03-23T06:59:44;100368.78;;;21.52;47.79
17254;BME280;32542;52.832;13.816;2023-03-23T07:02:48;100365.16;;;21.53;47.79
17254;BME280;32542;52.832;13.816;2023-03-23T07:05:51;100370.50;;;21.53;47.74
17254;BME280;32542;52.832;13.816;2023-03-23T07:08:56;100370.50;;;21.53;47.76
17254;BME280;32542;52.832;13.816;2023-03-23T07:12:02;100368.69;;;21.53;47.64
17254;BME280;32542;52.832;13.816;2023-03-23T07:15:10;100374.91;;;21.54;47.56
17254;BME280;32542;52.832;13.816;2023-03-23T07:18:17;100366.91;;;21.54;47.62
17254;BME280;32542;52.832;13.816;2023-03-23T07:21:21;100367.06;;;21.51;47.97
17254;BME280;32542;52.832;13.816;2023-03-23T07:24:24;100376.09;;;21.48;47.91
17254;BME280;32542;52.832;13.816;2023-03-23T07:27:45;100373.63;;;21.45;47.76
17254;BME280;32542;52.832;13.816;2023-03-23T07:30:50;100373.72;;;21.44;47.75
17254;BME280;32542;52.832;13.816;2023-03-23T07:33:53;100373.88;;;21.41;47.84
17254;BME280;32542;52.832;13.816;2023-03-23T07:37:00;100373.09;;;21.39;47.94
17254;BME280;32542;52.832;13.816;2023-03-23T07:40:05;100380.31;;;21.37;48.06
17254;BME280;32542;52.832;13.816;2023-03-23T07:43:16;100374.22;;;21.35;48.07
17254;BME280;32542;52.832;13.816;2023-03-23T07:46:37;100379.69;;;21.32;47.46
17254;BME280;32542;52.832;13.816;2023-03-23T07:49:48;100375.16;;;21.34;47.61
17254;BME280;32542;52.832;13.816;2023-03-23T07:53:01;100381.97;;;21.39;47.82
17254;BME280;32542;52.832;13.816;2023-03-23T07:56:07;100378.06;;;21.45;47.91
17254;BME280;32542;52.832;13.816;2023-03-23T07:59:27;100364.50;;;21.49;47.99
17254;BME280;32542;52.832;13.816;2023-03-23T08:02:32;100358.91;;;21.54;47.98
17254;BME280;32542;52.832;13.816;2023-03-23T08:06:11;100344.47;;;21.58;48.03
17254;BME280;32542;52.832;13.816;2023-03-23T08:09:18;100343.34;;;21.62;47.96
17254;BME280;32542;52.832;13.816;2023-03-23T08:12:52;100343.16;;;21.65;47.83
17254;BME280;32542;52.832;13.816;2023-03-23T08:16:03;100342.97;;;21.68;47.87
17254;BME280;32542;52.832;13.816;2023-03-23T08:19:17;100345.47;;;21.71;47.78
17254;BME280;32542;52.832;13.816;2023-03-23T08:22:42;100356.03;;;21.72;47.96
17254;BME280;32542;52.832;13.816;2023-03-23T08:26:21;100366.59;;;21.74;47.98
17254;BME280;32542;52.832;13.816;2023-03-23T08:29:23;100371.84;;;21.75;47.77
17254;BME280;32542;52.832;13.816;2023-03-23T08:32:43;100366.44;;;21.77;47.91
17254;BME280;32542;52.832;13.816;2023-03-23T08:36:21;100357.47;;;21.78;47.93
17254;BME280;32542;52.832;13.816;2023-03-23T08:39:45;100354.81;;;21.78;47.84
17254;BME280;32542;52.832;13.816;2023-03-23T08:43:14;100374.31;;;21.78;47.98
17254;BME280;32542;52.832;13.816;2023-03-23T08:46:46;100369.97;;;21.77;47.99
17254;BME280;32542;52.832;13.816;2023-03-23T08:50:10;100365.47;;;21.78;48.09
17254;BME280;32542;52.832;13.816;2023-03-23T08:53:21;100363.75;;;21.77;48.05
17254;BME280;32542;52.832;13.816;2023-03-23T08:56:54;100357.56;;;21.76;47.99
17254;BME280;32542;52.832;13.816;2023-03-23T09:00:11;100368.22;;;21.76;47.93
17254;BME280;32542;52.832;13.816;2023-03-23T09:03:50;100372.69;;;21.76;48.04
17254;BME280;32542;52.832;13.816;2023-03-23T09:07:22;100370.91;;;21.76;48.09
17254;BME280;32542;52.832;13.816;2023-03-23T09:10:25;100382.50;;;21.75;48.07
17254;BME280;32542;52.832;13.816;2023-03-23T09:13:28;100382.41;;;21.77;48.12
17254;BME280;32542;52.832;13.816;2023-03-23T09:16:30;100384.22;;;21.76;48.15
17254;BME280;32542;52.832;13.816;2023-03-23T09:19:33;100385.09;;;21.77;48.13
17254;BME280;32542;52.832;13.816;2023-03-23T09:22:35;100390.41;;;21.77;48.16
17254;BME280;32542;52.832;13.816;2023-03-23T09:25:39;100393.06;;;21.77;48.06
17254;BME280;32542;52.832;13.816;2023-03-23T09:28:42;100384.22;;;21.76;48.32
17254;BME280;32542;52.832;13.816;2023-03-23T09:31:44;100381.56;;;21.76;48.20
17254;BME280;32542;52.832;13.816;2023-03-23T09:34:47;100375.34;;;21.76;48.23
17254;BME280;32542;52.832;13.816;2023-03-23T09:37:51;100372.69;;;21.76;48.24
17254;BME280;32542;52.832;13.816;2023-03-23T09:40:58;100370.03;;;21.76;48.20
17254;BME280;32542;52.832;13.816;2023-03-23T09:44:08;100367.34;;;21.76;48.33
17254;BME280;32542;52.832;13.816;2023-03-23T09:47:18;100367.34;;;21.76;48.26
17254;BME280;32542;52.832;13.816;2023-03-23T09:50:26;100370.13;;;21.74;48.17
17254;BME280;32542;52.832;13.816;2023-03-23T09:53:37;100364.78;;;21.74;48.31
17254;BME280;32542;52.832;13.816;2023-03-23T09:56:40;100373.66;;;21.75;48.29
17254;BME280;32542;52.832;13.816;2023-03-23T09:59:46;100372.78;;;21.74;48.11
17254;BME280;32542;52.832;13.816;2023-03-23T10:02:57;100368.31;;;21.75;48.16
17254;BME280;32542;52.832;13.816;2023-03-23T10:06:02;100369.09;;;21.77;48.18
17254;BME280;32542;52.832;13.816;2023-03-23T10:09:05;100364.63;;;21.77;48.18
17254;BME280;32542;52.832;13.816;2023-03-23T10:12:15;100368.13;;;21.78;48.16
17254;BME280;32542;52.832;13.816;2023-03-23T10:15:23;100369.09;;;21.77;48.22
17254;BME280;32542;52.832;13.816;2023-03-23T10:18:35;100369.09;;;21.77;48.25
17254;BME280;32542;52.832;13.816;2023-03-23T10:21:41;100379.75;;;21.77;48.29
17254;BME280;32542;52.832;13.816;2023-03-23T10:24:50;100385.09;;;21.77;48.26
17254;BME280;32542;52.832;13.816;2023-03-23T10:27:58;100369.97;;;21.77;48.37
17254;BME280;32542;52.832;13.816;2023-03-23T10:31:03;100371.75;;;21.77;48.23
17254;BME280;32542;52.832;13.816;2023-03-23T10:34:10;100371.75;;;21.77;48.24
17254;BME280;32542;52.832;13.816;2023-03-23T10:37:17;100370.78;;;21.78;48.21
17254;BME280;32542;52.832;13.816;2023-03-23T10:40:22;100360.13;;;21.78;48.32
17254;BME280;32542;52.832;13.816;2023-03-23T10:43:25;100353.88;;;21.79;48.29
17254;BME280;32542;52.832;13.816;2023-03-23T10:46:38;100355.56;;;21.80;48.15
17254;BME280;32542;52.832;13.816;2023-03-23T10:49:45;100358.22;;;21.80;48.15
17254;BME280;32542;52.832;13.816;2023-03-23T10:52:50;100354.75;;;21.80;48.09
17254;BME280;32542;52.832;13.816;2023-03-23T10:55:54;100344.91;;;21.80;48.37
17254;BME280;32542;52.832;13.816;2023-03-23T10:58:56;100347.56;;;21.80;48.37
17254;BME280;32542;52.832;13.816;2023-03-23T11:02:02;100344.91;;;21.80;48.44
17254;BME280;32542;52.832;13.816;2023-03-23T11:05:18;100346.75;;;21.80;48.29
17254;BME280;32542;52.832;13.816;2023-03-23T11:08:22;100365.31;;;21.81;48.48
17254;BME280;32542;52.832;13.816;2023-03-23T11:11:28;100358.22;;;21.80;48.55
17254;BME280;32542;52.832;13.816;2023-03-23T11:14:32;100365.41;;;21.80;48.36
17254;BME280;32542;52.832;13.816;2023-03-23T11:17:37;100367.06;;;21.82;48.49
17254;BME280;32542;52.832;13.816;2023-03-23T11:20:40;100367.06;;;21.82;48.41
17254;BME280;32542;52.832;13.816;2023-03-23T11:23:49;100366.09;;;21.83;48.46
17254;BME280;32542;52.832;13.816;2023-03-23T11:26:51;100378.50;;;21.84;48.51
17254;BME280;32542;52.832;13.816;2023-03-23T11:29:58;100381.94;;;21.86;48.54
17254;BME280;32542;52.832;13.816;2023-03-23T11:33:02;100378.41;;;21.86;48.45
17254;BME280;32542;52.832;13.816;2023-03-23T11:36:06;100384.59;;;21.86;48.46
17254;BME280;32542;52.832;13.816;2023-03-23T11:39:24;100384.59;;;21.86;48.40
17254;BME280;32542;52.832;13.816;2023-03-23T11:42:36;100389.91;;;21.86;48.37
17254;BME280;32542;52.832;13.816;2023-03-23T11:45:39;100390.00;;;21.85;48.39
17254;BME280;32542;52.832;13.816;2023-03-23T11:48:49;100391.81;;;21.84;48.49
17254;BME280;32542;52.832;13.816;2023-03-23T11:51:58;100393.72;;;21.82;48.54
17254;BME280;32542;52.832;13.816;2023-03-23T11:55:08;100385.72;;;21.82;48.41
17254;BME280;32542;52.832;13.816;2023-03-23T11:58:13;100386.63;;;21.81;48.39
17254;BME280;32542;52.832;13.816;2023-03-23T12:01:23;100385.75;;;21.81;48.46
17254;BME280;32542;52.832;13.816;2023-03-23T12:08:08;100378.63;;;21.81;48.37
17254;BME280;32542;52.832;13.816;2023-03-23T12:11:18;100379.56;;;21.80;48.28
17254;BME280;32542;52.832;13.816;2023-03-23T12:14:32;100384.88;;;21.80;48.25
17254;BME280;32542;52.832;13.816;2023-03-23T12:17:43;100390.22;;;21.80;48.30
17254;BME280;32542;52.832;13.816;2023-03-23T12:21:01;100391.94;;;21.81;48.25
17254;BME280;32542;52.832;13.816;2023-03-23T12:24:09;100394.72;;;21.80;48.31
17254;BME280;32542;52.832;13.816;2023-03-23T12:27:23;100403.53;;;21.80;48.28
17254;BME280;32542;52.832;13.816;2023-03-23T12:30:32;100399.19;;;21.79;48.25
17254;BME280;32542;52.832;13.816;2023-03-23T12:33:44;100386.78;;;21.78;48.45
17254;BME280;32542;52.832;13.816;2023-03-23T12:36:57;100395.75;;;21.77;48.27
17254;BME280;32542;52.832;13.816;2023-03-23T12:40:16;100385.09;;;21.77;48.29
17254;BME280;32542;52.832;13.816;2023-03-23T12:43:28;100383.28;;;21.77;48.54
17254;BME280;32542;52.832;13.816;2023-03-23T12:46:55;100369.97;;;21.77;48.69
17254;BME280;32542;52.832;13.816;2023-03-23T12:50:02;100381.47;;;21.78;48.72
17254;BME280;32542;52.832;13.816;2023-03-23T12:53:10;100368.13;;;21.78;48.67
17254;BME280;32542;52.832;13.816;2023-03-23T12:56:18;100361.88;;;21.79;48.61
17254;BME280;32542;52.832;13.816;2023-03-23T12:59:25;100358.22;;;21.80;48.54
17254;BME280;32542;52.832;13.816;2023-03-23T13:02:31;100359.97;;;21.81;48.57
17254;BME280;32542;52.832;13.816;2023-03-23T13:05:40;100364.44;;;21.81;48.58
17254;BME280;32542;52.832;13.816;2023-03-23T13:08:49;100367.91;;;21.83;48.78
17254;BME280;32542;52.832;13.816;2023-03-23T13:11:53;100365.31;;;21.81;48.86
17254;BME280;32542;52.832;13.816;2023-03-23T13:15:03;100376.81;;;21.82;48.82
17254;BME280;32542;52.832;13.816;2023-03-23T13:18:11;100370.63;;;21.81;48.69
17254;BME280;32542;52.832;13.816;2023-03-23T13:21:18;100370.56;;;21.83;48.74
17254;BME280;32542;52.832;13.816;2023-03-23T13:24:26;100354.56;;;21.83;48.84
17254;BME280;32542;52.832;13.816;2023-03-23T13:27:29;100365.31;;;21.81;48.84
17254;BME280;32542;52.832;13.816;2023-03-23T13:30:31;100367.91;;;21.83;48.76
17254;BME280;32542;52.832;13.816;2023-03-23T13:33:35;100352.78;;;21.83;48.67
17254;BME280;32542;52.832;13.816;2023-03-23T13:36:39;100369.63;;;21.84;48.71
17254;BME280;32542;52.832;13.816;2023-03-23T13:39:51;100372.19;;;21.85;48.82
17254;BME280;32542;52.832;13.816;2023-03-23T13:42:57;100358.88;;;21.85;48.67
17254;BME280;32542;52.832;13.816;2023-03-23T13:46:08;100353.44;;;21.87;48.69
17254;BME280;32542;52.832;13.816;2023-03-23T13:49:19;100343.63;;;21.87;48.77
17254;BME280;32542;52.832;13.816;2023-03-23T13:52:24;100337.38;;;21.88;48.79
17254;BME280;32542;52.832;13.816;2023-03-23T13:55:40;100322.31;;;21.87;48.74
17254;BME280;32542;52.832;13.816;2023-03-23T13:58:47;100318.78;;;21.87;48.70
17254;BME280;32542;52.832;13.816;2023-03-23T14:01:52;100325.94;;;21.86;48.78
17254;BME280;32542;52.832;13.816;2023-03-23T14:04:55;100330.31;;;21.87;48.73
17254;BME280;32542;52.832;13.816;2023-03-23T14:07:59;100338.31;;;21.87;48.75
17254;BME280;32542;52.832;13.816;2023-03-23T14:11:13;100333.84;;;21.88;48.76
17254;BME280;32542;52.832;13.816;2023-03-23T14:14:21;100330.31;;;21.87;48.83
17254;BME280;32542;52.832;13.816;2023-03-23T14:17:26;100334.72;;;21.88;48.73
17254;BME280;32542;52.832;13.816;2023-03-23T14:20:31;100333.75;;;21.89;48.69
17254;BME280;32542;52.832;13.816;2023-03-23T14:23:34;100339.94;;;21.90;48.77
17254;BME280;32542;52.832;13.816;2023-03-23T14:26:39;100338.03;;;21.92;48.73
17254;BME280;32542;52.832;13.816;2023-03-23T14:29:43;100356.69;;;21.92;48.81
17254;BME280;32542;52.832;13.816;2023-03-23T14:32:45;100354.81;;;21.94;48.84
17254;BME280;32542;52.832;13.816;2023-03-23T14:35:48;100360.22;;;21.92;48.85
17254;BME280;32542;52.832;13.816;2023-03-23T14:39:02;100385.09;;;21.93;48.62
17254;BME280;32542;52.832;13.816;2023-03-23T14:42:10;100391.25;;;21.93;48.93
17254;BME280;32542;52.832;13.816;2023-03-23T14:45:15;100369.94;;;21.93;49.04
17254;BME280;32542;52.832;13.816;2023-03-23T14:48:17;100358.44;;;21.93;48.89
17254;BME280;32542;52.832;13.816;2023-03-23T14:51:21;100356.59;;;21.93;48.94
17254;BME280;32542;52.832;13.816;2023-03-23T14:54:25;100355.66;;;21.94;49.08
17254;BME280;32542;52.832;13.816;2023-03-23T14:57:29;100352.03;;;21.95;49.02
17254;BME280;32542;52.832;13.816;2023-03-23T15:00:35;100356.44;;;21.96;48.96
17254;BME280;32542;52.832;13.816;2023-03-23T15:03:40;100355.47;;;21.97;49.04
17254;BME280;32542;52.832;13.816;2023-03-23T15:06:46;100355.47;;;21.97;49.11
17254;BME280;32542;52.832;13.816;2023-03-23T15:09:50;100362.53;;;21.98;49.07
17254;BME280;32542;52.832;13.816;2023-03-23T15:12:53;100357.19;;;21.98;49.07
17254;BME280;32542;52.832;13.816;2023-03-23T15:16:06;100352.75;;;21.99;48.95
17254;BME280;32542;52.832;13.816;2023-03-23T15:19:16;100367.88;;;21.98;49.04
17254;BME280;32542;52.832;13.816;2023-03-23T15:22:22;100362.53;;;21.98;49.11
17254;BME280;32542;52.832;13.816;2023-03-23T15:25:30;100374.06;;;21.99;49.00
17254;BME280;32542;52.832;13.816;2023-03-23T15:28:40;100365.19;;;21.98;49.05
17254;BME280;32542;52.832;13.816;2023-03-23T15:31:44;100379.47;;;21.97;48.99
17254;BME280;32542;52.832;13.816;2023-03-23T15:34:46;100357.19;;;21.98;49.12
17254;BME280;32542;52.832;13.816;2023-03-23T15:37:51;100349.22;;;21.98;49.12
17254;BME280;32542;52.832;13.816;2023-03-23T15:40:55;100359.88;;;21.98;49.09
17254;BME280;32542;52.832;13.816;2023-03-23T15:44:12;100359.78;;;22.00;49.03
17254;BME280;32542;52.832;13.816;2023-03-23T15:47:21;100347.41;;;21.99;49.07
17254;BME280;32542;52.832;13.816;2023-03-23T15:50:33;100360.63;;;22.00;49.06
17254;BME280;32542;52.832;13.816;2023-03-23T15:53:37;100371.28;;;22.00;49.01
17254;BME280;32542;52.832;13.816;2023-03-23T15:56:39;100378.38;;;22.01;49.09
17254;BME280;32542;52.832;13.816;2023-03-23T15:59:43;100381.88;;;22.02;49.08
17254;BME280;32542;52.832;13.816;2023-03-23T16:02:49;100395.19;;;22.02;49.20
17254;BME280;32542;52.832;13.816;2023-03-23T16:05:55;100396.06;;;22.02;49.15
17254;BME280;32542;52.832;13.816;2023-03-23T16:09:00;100399.69;;;22.01;49.12
17254;BME280;32542;52.832;13.816;2023-03-23T16:12:04;100405.84;;;22.02;49.10
17254;BME280;32542;52.832;13.816;2023-03-23T16:15:08;100410.34;;;22.01;49.21
17254;BME280;32542;52.832;13.816;2023-03-23T16:18:17;100405.03;;;22.01;49.16